sensor_id;sensor_type;location;lat;lon;timestamp;P1;durP1;ratioP1;P2;durP2;ratioP2
3278;SDS011;1651;50.940;6.888;2022-12-05T00:02:25;30.80;;;17.87;;
3278;SDS011;1651;50.940;6.888;2022-12-05T00:04:51;34.72;;;18.45;;
3278;SDS011;1651;50.940;6.888;2022-12-05T00:07:17;29.73;;;17.10;;
3278;SDS011;1651;50.940;6.888;2022-12-05T00:09:43;31.63;;;18.00;;
3278;SDS011;1651;50.940;6.888;2022-12-05T00:12:09;31.83;;;18.50;;
3278;SDS011;1651;50.940;6.888;2022-12-05T00:14:35;36.03;;;17.70;;
3278;SDS011;1651;50.940;6.888;2022-12-05T00:17:01;38.60;;;20.48;;
3278;SDS011;1651;50.940;6.888;2022-12-05T00:19:27;35.58;;;19.38;;
3278;SDS011;1651;50.940;6.888;2022-12-05T00:21:53;33.67;;;19.00;;
3278;SDS011;1651;50.940;6.888;2022-12-05T00:24:21;38.95;;;18.88;;
3278;SDS011;1651;50.940;6.888;2022-12-05T00:26:47;29.53;;;17.17;;
3278;SDS011;1651;50.940;6.888;2022-12-05T00:29:13;31.10;;;17.25;;
3278;SDS011;1651;50.940;6.888;2022-12-05T00:31:39;36.65;;;21.02;;
3278;SDS011;1651;50.940;6.888;2022-12-05T00:34:05;38.33;;;19.10;;
3278;SDS011;1651;50.940;6.888;2022-12-05T00:36:32;31.30;;;17.73;;
3278;SDS011;1651;50.940;6.888;2022-12-05T00:39:00;35.60;;;18.48;;
3278;SDS011;1651;50.940;6.888;2022-12-05T00:41:26;36.45;;;18.52;;
3278;SDS011;1651;50.940;6.888;2022-12-05T00:43:53;31.83;;;18.00;;
3278;SDS011;1651;50.940;6.888;2022-12-05T00:46:20;34.20;;;19.77;;
3278;SDS011;1651;50.940;6.888;2022-12-05T00:48:48;31.88;;;19.17;;
3278;SDS011;1651;50.940;6.888;2022-12-05T00:51:18;29.42;;;17.20;;
3278;SDS011;1651;50.940;6.888;2022-12-05T00:53:46;31.88;;;18.30;;
3278;SDS011;1651;50.940;6.888;2022-12-05T00:56:13;27.02;;;14.70;;
3278;SDS011;1651;50.940;6.888;2022-12-05T00:58:39;30.73;;;18.77;;
3278;SDS011;1651;50.940;6.888;2022-12-05T01:01:13;32.53;;;17.98;;
3278;SDS011;1651;50.940;6.888;2022-12-05T01:03:39;34.10;;;16.63;;
3278;SDS011;1651;50.940;6.888;2022-12-05T01:06:05;28.00;;;17.10;;
3278;SDS011;1651;50.940;6.888;2022-12-05T01:08:32;28.80;;;16.80;;
3278;SDS011;1651;50.940;6.888;2022-12-05T01:10:58;30.00;;;17.17;;
3278;SDS011;1651;50.940;6.888;2022-12-05T01:13:25;28.27;;;15.93;;
3278;SDS011;1651;50.940;6.888;2022-12-05T01:15:51;24.90;;;15.55;;
3278;SDS011;1651;50.940;6.888;2022-12-05T01:18:17;27.80;;;15.63;;
3278;SDS011;1651;50.940;6.888;2022-12-05T01:20:44;25.52;;;14.95;;
3278;SDS011;1651;50.940;6.888;2022-12-05T01:23:10;28.25;;;16.20;;
3278;SDS011;1651;50.940;6.888;2022-12-05T01:25:41;28.60;;;17.35;;
3278;SDS011;1651;50.940;6.888;2022-12-05T01:28:07;27.42;;;16.55;;
3278;SDS011;1651;50.940;6.888;2022-12-05T01:30:41;28.00;;;16.15;;
3278;SDS011;1651;50.940;6.888;2022-12-05T01:33:07;27.60;;;15.98;;
3278;SDS011;1651;50.940;6.888;2022-12-05T01:35:34;24.70;;;16.27;;
3278;SDS011;1651;50.940;6.888;2022-12-05T01:38:01;37.25;;;15.57;;
3278;SDS011;1651;50.940;6.888;2022-12-05T01:40:27;29.90;;;17.13;;
3278;SDS011;1651;50.940;6.888;2022-12-05T01:42:53;26.93;;;16.70;;
3278;SDS011;1651;50.940;6.888;2022-12-05T01:45:41;28.65;;;15.50;;
3278;SDS011;1651;50.940;6.888;2022-12-05T01:48:19;25.63;;;15.40;;
3278;SDS011;1651;50.940;6.888;2022-12-05T01:50:46;26.20;;;14.50;;
3278;SDS011;1651;50.940;6.888;2022-12-05T01:53:12;27.23;;;15.05;;
3278;SDS011;1651;50.940;6.888;2022-12-05T01:55:39;28.75;;;15.23;;
3278;SDS011;1651;50.940;6.888;2022-12-05T01:58:05;32.13;;;16.73;;
3278;SDS011;1651;50.940;6.888;2022-12-05T02:00:32;29.98;;;16.52;;
3278;SDS011;1651;50.940;6.888;2022-12-05T02:02:58;24.80;;;14.55;;
3278;SDS011;1651;50.940;6.888;2022-12-05T02:05:29;27.55;;;16.65;;
3278;SDS011;1651;50.940;6.888;2022-12-05T02:07:56;29.45;;;16.08;;
3278;SDS011;1651;50.940;6.888;2022-12-05T02:10:22;27.38;;;16.30;;
3278;SDS011;1651;50.940;6.888;2022-12-05T02:12:48;27.63;;;15.77;;
3278;SDS011;1651;50.940;6.888;2022-12-05T02:15:25;28.10;;;16.50;;
3278;SDS011;1651;50.940;6.888;2022-12-05T02:18:28;25.33;;;14.73;;
3278;SDS011;1651;50.940;6.888;2022-12-05T02:21:03;28.40;;;15.50;;
3278;SDS011;1651;50.940;6.888;2022-12-05T02:30:56;31.80;;;16.23;;
3278;SDS011;1651;50.940;6.888;2022-12-05T02:33:30;24.45;;;14.07;;
3278;SDS011;1651;50.940;6.888;2022-12-05T02:38:45;27.27;;;14.77;;
3278;SDS011;1651;50.940;6.888;2022-12-05T02:41:17;29.90;;;16.00;;
3278;SDS011;1651;50.940;6.888;2022-12-05T02:43:56;28.17;;;16.42;;
3278;SDS011;1651;50.940;6.888;2022-12-05T02:46:25;30.52;;;16.42;;
3278;SDS011;1651;50.940;6.888;2022-12-05T02:48:53;27.90;;;16.95;;
3278;SDS011;1651;50.940;6.888;2022-12-05T02:51:21;26.27;;;15.43;;
3278;SDS011;1651;50.940;6.888;2022-12-05T02:53:49;27.85;;;16.90;;
3278;SDS011;1651;50.940;6.888;2022-12-05T02:56:15;26.80;;;16.27;;
3278;SDS011;1651;50.940;6.888;2022-12-05T02:58:49;29.15;;;15.73;;
3278;SDS011;1651;50.940;6.888;2022-12-05T03:01:17;26.60;;;15.02;;
3278;SDS011;1651;50.940;6.888;2022-12-05T03:03:44;27.80;;;14.63;;
3278;SDS011;1651;50.940;6.888;2022-12-05T03:08:52;23.00;;;14.55;;
3278;SDS011;1651;50.940;6.888;2022-12-05T03:11:20;25.50;;;15.15;;
3278;SDS011;1651;50.940;6.888;2022-12-05T03:13:54;21.98;;;11.95;;
3278;SDS011;1651;50.940;6.888;2022-12-05T03:16:28;27.20;;;15.00;;
3278;SDS011;1651;50.940;6.888;2022-12-05T03:19:00;23.10;;;14.10;;
3278;SDS011;1651;50.940;6.888;2022-12-05T03:24:20;27.23;;;14.70;;
3278;SDS011;1651;50.940;6.888;2022-12-05T03:26:52;25.30;;;15.73;;
3278;SDS011;1651;50.940;6.888;2022-12-05T03:31:51;24.90;;;13.80;;
3278;SDS011;1651;50.940;6.888;2022-12-05T03:34:20;32.83;;;15.90;;
3278;SDS011;1651;50.940;6.888;2022-12-05T03:36:52;29.00;;;15.68;;
3278;SDS011;1651;50.940;6.888;2022-12-05T03:41:49;27.00;;;14.40;;
3278;SDS011;1651;50.940;6.888;2022-12-05T03:44:18;25.45;;;15.27;;
3278;SDS011;1651;50.940;6.888;2022-12-05T03:46:47;24.50;;;13.57;;
3278;SDS011;1651;50.940;6.888;2022-12-05T03:49:19;26.27;;;14.98;;
3278;SDS011;1651;50.940;6.888;2022-12-05T03:54:33;27.60;;;15.05;;
3278;SDS011;1651;50.940;6.888;2022-12-05T03:57:02;24.63;;;13.88;;
3278;SDS011;1651;50.940;6.888;2022-12-05T03:59:40;22.80;;;13.82;;
3278;SDS011;1651;50.940;6.888;2022-12-05T04:02:14;30.60;;;16.35;;
3278;SDS011;1651;50.940;6.888;2022-12-05T04:04:44;22.60;;;12.90;;
3278;SDS011;1651;50.940;6.888;2022-12-05T04:07:11;22.77;;;14.50;;
3278;SDS011;1651;50.940;6.888;2022-12-05T04:09:42;22.90;;;12.40;;
3278;SDS011;1651;50.940;6.888;2022-12-05T04:12:10;23.52;;;13.18;;
3278;SDS011;1651;50.940;6.888;2022-12-05T04:14:40;23.85;;;12.77;;
3278;SDS011;1651;50.940;6.888;2022-12-05T04:17:21;26.48;;;15.15;;
3278;SDS011;1651;50.940;6.888;2022-12-05T04:19:54;26.90;;;13.85;;
3278;SDS011;1651;50.940;6.888;2022-12-05T04:22:40;21.52;;;12.73;;
3278;SDS011;1651;50.940;6.888;2022-12-05T04:25:08;28.52;;;14.02;;
3278;SDS011;1651;50.940;6.888;2022-12-05T04:30:27;22.88;;;13.65;;
3278;SDS011;1651;50.940;6.888;2022-12-05T04:33:09;27.25;;;14.98;;
3278;SDS011;1651;50.940;6.888;2022-12-05T04:35:41;21.35;;;14.15;;
3278;SDS011;1651;50.940;6.888;2022-12-05T04:38:16;22.20;;;13.50;;
3278;SDS011;1651;50.940;6.888;2022-12-05T04:40:49;24.75;;;14.35;;
3278;SDS011;1651;50.940;6.888;2022-12-05T04:43:17;24.80;;;13.77;;
3278;SDS011;1651;50.940;6.888;2022-12-05T04:45:44;22.17;;;13.05;;
3278;SDS011;1651;50.940;6.888;2022-12-05T04:48:13;27.52;;;13.23;;
3278;SDS011;1651;50.940;6.888;2022-12-05T04:50:40;22.30;;;13.48;;
3278;SDS011;1651;50.940;6.888;2022-12-05T04:53:07;28.92;;;14.52;;
3278;SDS011;1651;50.940;6.888;2022-12-05T04:55:34;25.02;;;13.25;;
3278;SDS011;1651;50.940;6.888;2022-12-05T04:58:16;23.20;;;13.85;;
3278;SDS011;1651;50.940;6.888;2022-12-05T05:05:57;32.83;;;16.02;;
3278;SDS011;1651;50.940;6.888;2022-12-05T05:08:25;26.40;;;13.27;;
3278;SDS011;1651;50.940;6.888;2022-12-05T05:13:24;29.63;;;14.43;;
3278;SDS011;1651;50.940;6.888;2022-12-05T05:15:51;24.77;;;14.35;;
3278;SDS011;1651;50.940;6.888;2022-12-05T05:18:17;26.63;;;14.82;;
3278;SDS011;1651;50.940;6.888;2022-12-05T05:20:43;25.48;;;14.32;;
3278;SDS011;1651;50.940;6.888;2022-12-05T05:23:10;21.88;;;13.77;;
3278;SDS011;1651;50.940;6.888;2022-12-05T05:25:37;21.30;;;13.27;;
3278;SDS011;1651;50.940;6.888;2022-12-05T05:28:06;22.20;;;12.50;;
3278;SDS011;1651;50.940;6.888;2022-12-05T05:30:32;28.17;;;14.68;;
3278;SDS011;1651;50.940;6.888;2022-12-05T05:32:59;25.47;;;14.67;;
3278;SDS011;1651;50.940;6.888;2022-12-05T05:35:25;21.33;;;13.40;;
3278;SDS011;1651;50.940;6.888;2022-12-05T05:37:51;25.43;;;14.67;;
3278;SDS011;1651;50.940;6.888;2022-12-05T05:40:17;27.00;;;14.30;;
3278;SDS011;1651;50.940;6.888;2022-12-05T05:42:47;24.58;;;14.82;;
3278;SDS011;1651;50.940;6.888;2022-12-05T05:45:17;23.92;;;14.98;;
3278;SDS011;1651;50.940;6.888;2022-12-05T05:47:43;22.65;;;13.43;;
3278;SDS011;1651;50.940;6.888;2022-12-05T05:50:10;25.23;;;13.68;;
3278;SDS011;1651;50.940;6.888;2022-12-05T05:52:36;25.20;;;13.70;;
3278;SDS011;1651;50.940;6.888;2022-12-05T05:55:03;22.25;;;14.10;;
3278;SDS011;1651;50.940;6.888;2022-12-05T06:00:15;27.67;;;14.93;;
3278;SDS011;1651;50.940;6.888;2022-12-05T06:02:41;23.10;;;13.57;;
3278;SDS011;1651;50.940;6.888;2022-12-05T06:05:11;28.65;;;15.38;;
3278;SDS011;1651;50.940;6.888;2022-12-05T06:07:37;27.35;;;15.00;;
3278;SDS011;1651;50.940;6.888;2022-12-05T06:10:04;23.00;;;13.23;;
3278;SDS011;1651;50.940;6.888;2022-12-05T06:12:32;26.02;;;14.05;;
3278;SDS011;1651;50.940;6.888;2022-12-05T06:14:59;24.50;;;14.88;;
3278;SDS011;1651;50.940;6.888;2022-12-05T06:17:26;24.33;;;13.80;;
3278;SDS011;1651;50.940;6.888;2022-12-05T06:19:52;24.92;;;13.77;;
3278;SDS011;1651;50.940;6.888;2022-12-05T06:22:18;24.30;;;15.40;;
3278;SDS011;1651;50.940;6.888;2022-12-05T06:24:44;19.92;;;13.57;;
3278;SDS011;1651;50.940;6.888;2022-12-05T06:27:09;29.52;;;15.05;;
3278;SDS011;1651;50.940;6.888;2022-12-05T06:29:38;25.48;;;15.10;;
3278;SDS011;1651;50.940;6.888;2022-12-05T06:32:04;30.95;;;14.70;;
3278;SDS011;1651;50.940;6.888;2022-12-05T06:34:30;20.65;;;13.55;;
3278;SDS011;1651;50.940;6.888;2022-12-05T06:36:57;25.95;;;13.48;;
3278;SDS011;1651;50.940;6.888;2022-12-05T06:39:23;23.48;;;13.60;;
3278;SDS011;1651;50.940;6.888;2022-12-05T06:41:50;22.83;;;13.35;;
3278;SDS011;1651;50.940;6.888;2022-12-05T06:44:16;22.05;;;14.05;;
3278;SDS011;1651;50.940;6.888;2022-12-05T06:46:42;24.70;;;14.43;;
3278;SDS011;1651;50.940;6.888;2022-12-05T06:49:08;25.75;;;14.00;;
3278;SDS011;1651;50.940;6.888;2022-12-05T06:51:35;25.55;;;13.40;;
3278;SDS011;1651;50.940;6.888;2022-12-05T06:54:01;25.17;;;14.80;;
3278;SDS011;1651;50.940;6.888;2022-12-05T06:56:27;25.37;;;14.73;;
3278;SDS011;1651;50.940;6.888;2022-12-05T06:58:53;22.15;;;12.77;;
3278;SDS011;1651;50.940;6.888;2022-12-05T07:01:21;23.55;;;12.52;;
3278;SDS011;1651;50.940;6.888;2022-12-05T07:04:03;30.08;;;14.60;;
3278;SDS011;1651;50.940;6.888;2022-12-05T07:06:29;21.48;;;13.02;;
3278;SDS011;1651;50.940;6.888;2022-12-05T07:08:55;20.40;;;12.65;;
3278;SDS011;1651;50.940;6.888;2022-12-05T07:11:21;26.00;;;13.65;;
3278;SDS011;1651;50.940;6.888;2022-12-05T07:13:47;28.73;;;13.00;;
3278;SDS011;1651;50.940;6.888;2022-12-05T07:16:13;24.95;;;12.65;;
3278;SDS011;1651;50.940;6.888;2022-12-05T07:18:40;24.33;;;13.18;;
3278;SDS011;1651;50.940;6.888;2022-12-05T07:21:09;22.23;;;13.73;;
3278;SDS011;1651;50.940;6.888;2022-12-05T07:23:36;22.00;;;12.98;;
3278;SDS011;1651;50.940;6.888;2022-12-05T07:26:05;23.97;;;12.90;;
3278;SDS011;1651;50.940;6.888;2022-12-05T07:28:31;23.33;;;12.98;;
3278;SDS011;1651;50.940;6.888;2022-12-05T07:31:02;24.08;;;14.32;;
3278;SDS011;1651;50.940;6.888;2022-12-05T07:33:29;28.98;;;15.85;;
3278;SDS011;1651;50.940;6.888;2022-12-05T07:36:02;25.20;;;14.33;;
3278;SDS011;1651;50.940;6.888;2022-12-05T07:38:28;28.10;;;14.52;;
3278;SDS011;1651;50.940;6.888;2022-12-05T07:40:55;23.00;;;14.20;;
3278;SDS011;1651;50.940;6.888;2022-12-05T07:43:23;26.67;;;13.73;;
3278;SDS011;1651;50.940;6.888;2022-12-05T07:45:50;20.75;;;12.75;;
3278;SDS011;1651;50.940;6.888;2022-12-05T07:48:16;23.63;;;14.57;;
3278;SDS011;1651;50.940;6.888;2022-12-05T07:50:42;24.85;;;13.80;;
3278;SDS011;1651;50.940;6.888;2022-12-05T07:53:10;21.80;;;14.02;;
3278;SDS011;1651;50.940;6.888;2022-12-05T07:55:36;20.75;;;13.18;;
3278;SDS011;1651;50.940;6.888;2022-12-05T07:58:03;24.55;;;14.00;;
3278;SDS011;1651;50.940;6.888;2022-12-05T08:00:29;23.70;;;13.00;;
3278;SDS011;1651;50.940;6.888;2022-12-05T08:02:55;23.10;;;12.50;;
3278;SDS011;1651;50.940;6.888;2022-12-05T08:05:23;22.37;;;13.53;;
3278;SDS011;1651;50.940;6.888;2022-12-05T08:07:49;22.25;;;13.27;;
3278;SDS011;1651;50.940;6.888;2022-12-05T08:10:15;27.23;;;13.73;;
3278;SDS011;1651;50.940;6.888;2022-12-05T08:12:42;22.70;;;14.30;;
3278;SDS011;1651;50.940;6.888;2022-12-05T08:15:09;25.95;;;13.55;;
3278;SDS011;1651;50.940;6.888;2022-12-05T08:17:35;20.95;;;13.80;;
3278;SDS011;1651;50.940;6.888;2022-12-05T08:20:01;26.00;;;14.20;;
3278;SDS011;1651;50.940;6.888;2022-12-05T08:22:27;21.10;;;13.48;;
3278;SDS011;1651;50.940;6.888;2022-12-05T08:24:53;25.15;;;14.48;;
3278;SDS011;1651;50.940;6.888;2022-12-05T08:27:19;20.67;;;13.98;;
3278;SDS011;1651;50.940;6.888;2022-12-05T08:29:46;24.47;;;13.07;;
3278;SDS011;1651;50.940;6.888;2022-12-05T08:32:12;22.40;;;13.70;;
3278;SDS011;1651;50.940;6.888;2022-12-05T08:34:38;22.73;;;12.90;;
3278;SDS011;1651;50.940;6.888;2022-12-05T08:37:04;24.70;;;13.30;;
3278;SDS011;1651;50.940;6.888;2022-12-05T08:39:30;26.55;;;14.13;;
3278;SDS011;1651;50.940;6.888;2022-12-05T08:41:56;23.23;;;14.65;;
3278;SDS011;1651;50.940;6.888;2022-12-05T08:44:22;23.67;;;13.15;;
3278;SDS011;1651;50.940;6.888;2022-12-05T08:46:50;27.25;;;12.63;;
3278;SDS011;1651;50.940;6.888;2022-12-05T08:49:16;20.15;;;13.60;;
3278;SDS011;1651;50.940;6.888;2022-12-05T08:51:43;22.45;;;13.27;;
3278;SDS011;1651;50.940;6.888;2022-12-05T08:54:09;23.08;;;14.07;;
3278;SDS011;1651;50.940;6.888;2022-12-05T08:56:35;21.52;;;13.73;;
3278;SDS011;1651;50.940;6.888;2022-12-05T08:59:04;26.42;;;14.20;;
3278;SDS011;1651;50.940;6.888;2022-12-05T09:01:32;19.83;;;11.43;;
3278;SDS011;1651;50.940;6.888;2022-12-05T09:04:01;20.58;;;13.20;;
3278;SDS011;1651;50.940;6.888;2022-12-05T09:06:29;20.52;;;12.98;;
3278;SDS011;1651;50.940;6.888;2022-12-05T09:08:56;21.90;;;14.00;;
3278;SDS011;1651;50.940;6.888;2022-12-05T09:11:24;27.33;;;14.65;;
3278;SDS011;1651;50.940;6.888;2022-12-05T09:13:51;21.88;;;12.98;;
3278;SDS011;1651;50.940;6.888;2022-12-05T09:16:19;21.92;;;13.23;;
3278;SDS011;1651;50.940;6.888;2022-12-05T09:18:46;29.45;;;14.75;;
3278;SDS011;1651;50.940;6.888;2022-12-05T09:21:16;22.33;;;13.35;;
3278;SDS011;1651;50.940;6.888;2022-12-05T09:23:43;27.75;;;14.38;;
3278;SDS011;1651;50.940;6.888;2022-12-05T09:26:11;22.30;;;12.80;;
3278;SDS011;1651;50.940;6.888;2022-12-05T09:28:38;25.25;;;15.80;;
3278;SDS011;1651;50.940;6.888;2022-12-05T09:31:05;27.70;;;17.90;;
3278;SDS011;1651;50.940;6.888;2022-12-05T09:33:33;24.83;;;15.27;;
3278;SDS011;1651;50.940;6.888;2022-12-05T09:36:03;26.88;;;16.60;;
3278;SDS011;1651;50.940;6.888;2022-12-05T09:38:30;23.77;;;14.20;;
3278;SDS011;1651;50.940;6.888;2022-12-05T09:41:17;26.30;;;15.60;;
3278;SDS011;1651;50.940;6.888;2022-12-05T09:44:05;25.85;;;15.40;;
3278;SDS011;1651;50.940;6.888;2022-12-05T09:46:43;22.33;;;14.90;;
3278;SDS011;1651;50.940;6.888;2022-12-05T09:49:14;25.77;;;15.35;;
3278;SDS011;1651;50.940;6.888;2022-12-05T09:51:42;21.70;;;15.10;;
3278;SDS011;1651;50.940;6.888;2022-12-05T09:54:10;20.92;;;15.38;;
3278;SDS011;1651;50.940;6.888;2022-12-05T09:56:36;23.40;;;13.55;;
3278;SDS011;1651;50.940;6.888;2022-12-05T09:59:03;18.85;;;14.35;;
3278;SDS011;1651;50.940;6.888;2022-12-05T10:06:39;19.77;;;13.68;;
3278;SDS011;1651;50.940;6.888;2022-12-05T10:20:02;18.00;;;12.48;;
3278;SDS011;1651;50.940;6.888;2022-12-05T10:22:35;16.58;;;12.40;;
3278;SDS011;1651;50.940;6.888;2022-12-05T10:25:03;17.13;;;13.02;;
3278;SDS011;1651;50.940;6.888;2022-12-05T10:27:32;24.63;;;15.18;;
3278;SDS011;1651;50.940;6.888;2022-12-05T10:30:05;19.98;;;13.30;;
3278;SDS011;1651;50.940;6.888;2022-12-05T10:32:36;18.85;;;13.05;;
3278;SDS011;1651;50.940;6.888;2022-12-05T10:35:47;22.67;;;13.43;;
3278;SDS011;1651;50.940;6.888;2022-12-05T10:37:55;19.80;;;12.25;;
3278;SDS011;1651;50.940;6.888;2022-12-05T10:40:22;19.80;;;11.77;;
3278;SDS011;1651;50.940;6.888;2022-12-05T10:42:50;17.77;;;11.57;;
3278;SDS011;1651;50.940;6.888;2022-12-05T10:45:18;20.33;;;12.00;;
3278;SDS011;1651;50.940;6.888;2022-12-05T10:47:45;15.85;;;11.05;;
3278;SDS011;1651;50.940;6.888;2022-12-05T10:50:34;17.17;;;10.68;;
3278;SDS011;1651;50.940;6.888;2022-12-05T10:52:58;17.77;;;11.05;;
3278;SDS011;1651;50.940;6.888;2022-12-05T10:55:30;15.73;;;11.13;;
3278;SDS011;1651;50.940;6.888;2022-12-05T11:00:54;14.55;;;10.43;;
3278;SDS011;1651;50.940;6.888;2022-12-05T11:03:22;17.75;;;11.80;;
3278;SDS011;1651;50.940;6.888;2022-12-05T11:05:50;19.17;;;12.10;;
3278;SDS011;1651;50.940;6.888;2022-12-05T11:08:26;21.42;;;12.27;;
3278;SDS011;1651;50.940;6.888;2022-12-05T11:11:03;19.20;;;12.40;;
3278;SDS011;1651;50.940;6.888;2022-12-05T11:13:30;18.85;;;13.18;;
3278;SDS011;1651;50.940;6.888;2022-12-05T11:15:57;19.77;;;13.10;;
3278;SDS011;1651;50.940;6.888;2022-12-05T11:18:30;23.75;;;13.77;;
3278;SDS011;1651;50.940;6.888;2022-12-05T11:23:45;20.13;;;13.05;;
3278;SDS011;1651;50.940;6.888;2022-12-05T11:26:16;18.08;;;13.10;;
3278;SDS011;1651;50.940;6.888;2022-12-05T11:28:43;19.17;;;13.07;;
3278;SDS011;1651;50.940;6.888;2022-12-05T11:33:41;18.35;;;11.68;;
3278;SDS011;1651;50.940;6.888;2022-12-05T11:38:36;21.77;;;15.02;;
3278;SDS011;1651;50.940;6.888;2022-12-05T11:54:10;21.92;;;15.18;;
3278;SDS011;1651;50.940;6.888;2022-12-05T11:56:40;24.05;;;15.20;;
3278;SDS011;1651;50.940;6.888;2022-12-05T12:04:49;20.67;;;13.93;;
3278;SDS011;1651;50.940;6.888;2022-12-05T12:20:24;21.48;;;13.95;;
3278;SDS011;1651;50.940;6.888;2022-12-05T12:23:27;24.05;;;13.55;;
3278;SDS011;1651;50.940;6.888;2022-12-05T12:33:19;18.98;;;13.38;;
3278;SDS011;1651;50.940;6.888;2022-12-05T12:36:12;19.17;;;14.77;;
3278;SDS011;1651;50.940;6.888;2022-12-05T12:38:47;18.92;;;12.13;;
3278;SDS011;1651;50.940;6.888;2022-12-05T12:41:35;14.88;;;10.63;;
3278;SDS011;1651;50.940;6.888;2022-12-05T12:46:42;16.85;;;13.43;;
3278;SDS011;1651;50.940;6.888;2022-12-05T12:51:43;14.20;;;10.60;;
3278;SDS011;1651;50.940;6.888;2022-12-05T13:01:54;15.35;;;11.30;;
3278;SDS011;1651;50.940;6.888;2022-12-05T13:04:33;16.33;;;10.65;;
3278;SDS011;1651;50.940;6.888;2022-12-05T13:09:44;20.58;;;13.77;;
3278;SDS011;1651;50.940;6.888;2022-12-05T13:12:14;20.38;;;13.63;;
3278;SDS011;1651;50.940;6.888;2022-12-05T13:14:46;17.88;;;13.77;;
3278;SDS011;1651;50.940;6.888;2022-12-05T13:17:14;15.70;;;12.55;;
3278;SDS011;1651;50.940;6.888;2022-12-05T13:19:42;18.42;;;12.57;;
3278;SDS011;1651;50.940;6.888;2022-12-05T13:22:09;19.40;;;12.48;;
3278;SDS011;1651;50.940;6.888;2022-12-05T13:24:37;18.83;;;12.85;;
3278;SDS011;1651;50.940;6.888;2022-12-05T13:27:07;22.88;;;14.50;;
3278;SDS011;1651;50.940;6.888;2022-12-05T13:29:39;19.98;;;11.90;;
3278;SDS011;1651;50.940;6.888;2022-12-05T13:32:05;17.92;;;12.80;;
3278;SDS011;1651;50.940;6.888;2022-12-05T13:36:59;18.67;;;13.27;;
3278;SDS011;1651;50.940;6.888;2022-12-05T13:39:53;19.45;;;14.40;;
3278;SDS011;1651;50.940;6.888;2022-12-05T13:42:38;22.40;;;14.65;;
3278;SDS011;1651;50.940;6.888;2022-12-05T13:45:16;18.67;;;13.32;;
3278;SDS011;1651;50.940;6.888;2022-12-05T13:47:52;20.25;;;14.73;;
3278;SDS011;1651;50.940;6.888;2022-12-05T13:53:15;21.75;;;14.63;;
3278;SDS011;1651;50.940;6.888;2022-12-05T13:56:05;17.80;;;14.15;;
3278;SDS011;1651;50.940;6.888;2022-12-05T13:58:36;20.05;;;13.80;;
3278;SDS011;1651;50.940;6.888;2022-12-05T14:17:15;23.05;;;14.93;;
3278;SDS011;1651;50.940;6.888;2022-12-05T14:20:24;27.88;;;16.33;;
3278;SDS011;1651;50.940;6.888;2022-12-05T14:22:41;24.52;;;14.85;;
3278;SDS011;1651;50.940;6.888;2022-12-05T14:25:11;19.65;;;13.95;;
3278;SDS011;1651;50.940;6.888;2022-12-05T14:30:19;22.55;;;12.88;;
3278;SDS011;1651;50.940;6.888;2022-12-05T14:32:47;21.17;;;13.82;;
3278;SDS011;1651;50.940;6.888;2022-12-05T14:37:57;18.88;;;13.05;;
3278;SDS011;1651;50.940;6.888;2022-12-05T14:40:35;24.02;;;12.95;;
3278;SDS011;1651;50.940;6.888;2022-12-05T14:43:06;20.05;;;12.63;;
3278;SDS011;1651;50.940;6.888;2022-12-05T14:45:34;18.25;;;13.50;;
3278;SDS011;1651;50.940;6.888;2022-12-05T14:48:02;20.98;;;14.18;;
3278;SDS011;1651;50.940;6.888;2022-12-05T15:00:54;20.65;;;13.05;;
3278;SDS011;1651;50.940;6.888;2022-12-05T15:03:22;23.35;;;14.32;;
3278;SDS011;1651;50.940;6.888;2022-12-05T15:05:49;20.15;;;13.52;;
3278;SDS011;1651;50.940;6.888;2022-12-05T15:08:15;16.27;;;13.15;;
3278;SDS011;1651;50.940;6.888;2022-12-05T15:10:42;17.45;;;12.35;;
3278;SDS011;1651;50.940;6.888;2022-12-05T15:13:11;17.58;;;13.13;;
3278;SDS011;1651;50.940;6.888;2022-12-05T15:15:41;17.17;;;13.93;;
3278;SDS011;1651;50.940;6.888;2022-12-05T15:20:40;17.45;;;12.40;;
3278;SDS011;1651;50.940;6.888;2022-12-05T15:25:53;15.73;;;11.43;;
3278;SDS011;1651;50.940;6.888;2022-12-05T15:28:22;16.13;;;10.97;;
3278;SDS011;1651;50.940;6.888;2022-12-05T15:30:53;16.30;;;10.20;;
3278;SDS011;1651;50.940;6.888;2022-12-05T15:33:19;12.18;;;9.45;;
3278;SDS011;1651;50.940;6.888;2022-12-05T15:35:46;15.50;;;10.52;;
3278;SDS011;1651;50.940;6.888;2022-12-05T15:38:16;14.48;;;10.75;;
3278;SDS011;1651;50.940;6.888;2022-12-05T15:40:48;16.00;;;11.00;;
3278;SDS011;1651;50.940;6.888;2022-12-05T15:48:38;14.65;;;11.30;;
3278;SDS011;1651;50.940;6.888;2022-12-05T15:51:04;14.53;;;11.00;;
3278;SDS011;1651;50.940;6.888;2022-12-05T16:04:36;14.95;;;10.68;;
3278;SDS011;1651;50.940;6.888;2022-12-05T16:10:16;14.88;;;10.65;;
3278;SDS011;1651;50.940;6.888;2022-12-05T16:15:49;17.75;;;12.23;;
3278;SDS011;1651;50.940;6.888;2022-12-05T16:33:57;15.85;;;11.40;;
3278;SDS011;1651;50.940;6.888;2022-12-05T16:36:53;15.68;;;10.77;;
3278;SDS011;1651;50.940;6.888;2022-12-05T16:42:35;15.60;;;11.30;;
3278;SDS011;1651;50.940;6.888;2022-12-05T16:48:15;17.92;;;11.40;;
3278;SDS011;1651;50.940;6.888;2022-12-05T16:53:58;22.23;;;12.40;;
3278;SDS011;1651;50.940;6.888;2022-12-05T16:56:31;17.30;;;11.13;;
3278;SDS011;1651;50.940;6.888;2022-12-05T16:59:01;15.38;;;10.35;;
3278;SDS011;1651;50.940;6.888;2022-12-05T17:01:28;18.33;;;11.98;;
3278;SDS011;1651;50.940;6.888;2022-12-05T17:03:54;14.73;;;12.23;;
3278;SDS011;1651;50.940;6.888;2022-12-05T17:06:21;16.75;;;12.48;;
3278;SDS011;1651;50.940;6.888;2022-12-05T17:08:48;13.45;;;10.77;;
3278;SDS011;1651;50.940;6.888;2022-12-05T17:11:18;15.55;;;12.32;;
3278;SDS011;1651;50.940;6.888;2022-12-05T17:13:48;12.60;;;9.73;;
3278;SDS011;1651;50.940;6.888;2022-12-05T17:16:14;14.85;;;10.77;;
3278;SDS011;1651;50.940;6.888;2022-12-05T17:18:42;13.40;;;11.25;;
3278;SDS011;1651;50.940;6.888;2022-12-05T17:21:18;11.50;;;10.05;;
3278;SDS011;1651;50.940;6.888;2022-12-05T17:23:45;17.92;;;11.35;;
3278;SDS011;1651;50.940;6.888;2022-12-05T17:26:11;17.75;;;12.55;;
3278;SDS011;1651;50.940;6.888;2022-12-05T17:28:38;15.77;;;12.00;;
3278;SDS011;1651;50.940;6.888;2022-12-05T17:31:06;13.95;;;10.95;;
3278;SDS011;1651;50.940;6.888;2022-12-05T17:33:34;14.77;;;10.88;;
3278;SDS011;1651;50.940;6.888;2022-12-05T17:36:00;16.27;;;10.90;;
3278;SDS011;1651;50.940;6.888;2022-12-05T17:38:25;15.87;;;11.50;;
3278;SDS011;1651;50.940;6.888;2022-12-05T17:40:51;16.50;;;12.93;;
3278;SDS011;1651;50.940;6.888;2022-12-05T17:43:17;13.90;;;10.50;;
3278;SDS011;1651;50.940;6.888;2022-12-05T17:45:43;14.98;;;12.18;;
3278;SDS011;1651;50.940;6.888;2022-12-05T17:48:11;15.02;;;11.57;;
3278;SDS011;1651;50.940;6.888;2022-12-05T17:50:41;16.02;;;10.55;;
3278;SDS011;1651;50.940;6.888;2022-12-05T17:53:10;17.85;;;11.95;;
3278;SDS011;1651;50.940;6.888;2022-12-05T17:55:37;27.30;;;16.60;;
3278;SDS011;1651;50.940;6.888;2022-12-05T17:58:03;38.28;;;23.15;;
3278;SDS011;1651;50.940;6.888;2022-12-05T18:00:29;25.25;;;14.77;;
3278;SDS011;1651;50.940;6.888;2022-12-05T18:02:56;17.63;;;13.55;;
3278;SDS011;1651;50.940;6.888;2022-12-05T18:05:24;19.95;;;13.20;;
3278;SDS011;1651;50.940;6.888;2022-12-05T18:07:50;17.33;;;11.88;;
3278;SDS011;1651;50.940;6.888;2022-12-05T18:10:17;17.77;;;12.35;;
3278;SDS011;1651;50.940;6.888;2022-12-05T18:12:44;26.67;;;15.18;;
3278;SDS011;1651;50.940;6.888;2022-12-05T18:15:10;20.10;;;15.27;;
3278;SDS011;1651;50.940;6.888;2022-12-05T18:20:06;14.95;;;11.10;;
3278;SDS011;1651;50.940;6.888;2022-12-05T18:22:32;17.20;;;11.85;;
3278;SDS011;1651;50.940;6.888;2022-12-05T18:24:58;20.90;;;12.82;;
3278;SDS011;1651;50.940;6.888;2022-12-05T18:27:27;17.25;;;13.32;;
3278;SDS011;1651;50.940;6.888;2022-12-05T18:29:53;17.90;;;12.10;;
3278;SDS011;1651;50.940;6.888;2022-12-05T18:32:19;13.90;;;11.73;;